Time;durP1;ratioP1;P1;durP2;ratioP2;P2;SDS_P1;SDS_P2;PMS_P1;PMS_P2;Temp;Humidity;BMP_temperature;BMP_pressure;BME280_temperature;BME280_humidity;BME280_pressure;Samples;Min_cycle;Max_cycle;Signal;HPM_P1;HPM_P2
2021/01/15 08:58:57;;;;;;;10.00;7.20;;;;;;;-1.30;92.88;99582.88;5169537;27;20598;-83
2021/01/15 09:01:27;;;;;;;9.47;6.87;;;;;;;-0.82;94.52;99575.75;5150680;27;38768;-84
2021/01/15 09:04:00;;;;;;;10.07;7.13;;;;;;;-0.21;93.65;99596.16;5151129;27;41347;-82
2021/01/15 09:06:29;;;;;;;8.10;6.73;;;;;;;0.17;91.42;99599.31;5229452;22;43136;-84
2021/01/15 09:08:58;;;;;;;8.03;6.03;;;;;;;0.51;88.88;99599.84;5087651;28;41880;-81
2021/01/15 09:11:27;;;;;;;7.63;5.97;;;;;;;0.87;86.78;99606.41;5087732;28;38916;-83
2021/01/15 09:13:55;;;;;;;9.37;6.57;;;;;;;1.00;85.19;99600.16;5105532;28;41764;-81
2021/01/15 09:16:25;;;;;;;9.10;6.73;;;;;;;1.24;84.03;99608.56;5089056;28;41955;-84
2021/01/15 09:18:53;;;;;;;9.83;7.10;;;;;;;1.42;82.70;99618.78;5190735;22;40819;-79
2021/01/15 09:21:21;;;;;;;9.63;7.50;;;;;;;1.43;81.17;99604.84;5127595;27;39987;-81
2021/01/15 09:23:48;;;;;;;9.10;6.23;;;;;;;1.68;80.59;99628.88;5129730;27;41774;-81
2021/01/15 09:26:19;;;;;;;11.07;7.53;;;;;;;1.82;79.65;99633.88;5112325;27;41589;-82
2021/01/15 09:28:47;;;;;;;9.23;6.47;;;;;;;1.43;79.05;99557.88;5202913;22;42119;-83
2021/01/15 09:31:14;;;;;;;8.70;6.27;;;;;;;2.03;78.38;99644.88;5038845;28;39567;-81
2021/01/15 09:33:48;;;;;;;9.07;6.57;;;;;;;2.13;78.05;99645.56;5025950;28;42647;-83
2021/01/15 09:36:25;;;;;;;8.43;6.37;;;;;;;2.19;77.06;99640.25;5008004;28;43525;-82
2021/01/15 09:38:54;;;;;;;9.00;6.60;;;;;;;2.28;76.70;99650.56;5024560;28;41233;-82
2021/01/15 09:41:22;;;;;;;9.03;6.60;;;;;;;2.27;75.99;99637.50;5121921;22;39890;-82
2021/01/15 09:43:53;;;;;;;7.70;6.20;;;;;;;2.42;75.91;99655.56;5084646;28;41408;-82
2021/01/15 09:46:22;;;;;;;7.83;5.83;;;;;;;2.46;74.79;99655.50;5068732;28;41827;-82
2021/01/15 09:48:50;;;;;;;9.00;6.17;;;;;;;2.65;74.38;99676.06;5076676;28;41244;-84
2021/01/15 09:51:20;;;;;;;8.30;5.83;;;;;;;2.67;73.33;99672.56;5077992;28;39975;-84
2021/01/15 09:53:47;;;;;;;7.20;6.33;;;;;;;2.70;72.26;99667.28;5195599;22;42383;-82
2021/01/15 09:56:22;;;;;;;9.07;7.13;;;;;;;2.88;72.14;99676.53;5104649;28;42679;-83
2021/01/15 09:58:50;;;;;;;8.90;6.67;;;;;;;2.89;72.17;99667.78;5104385;28;42943;-82
2021/01/15 10:01:17;;;;;;;9.20;6.40;;;;;;;2.96;70.38;99682.50;5087690;28;39019;-85
2021/01/15 10:03:45;;;;;;;8.90;6.33;;;;;;;2.94;69.53;99668.56;5181571;22;41789;-84
2021/01/15 10:06:17;;;;;;;8.70;6.60;;;;;;;3.18;70.15;99688.19;5086126;28;41439;-81
2021/01/15 10:08:45;;;;;;;8.00;6.10;;;;;;;3.17;70.17;99675.97;5100116;28;42368;-83
2021/01/15 10:11:23;;;;;;;9.57;7.33;;;;;;;3.34;68.86;99699.22;5074020;28;39185;-84
2021/01/15 10:13:53;;;;;;;8.63;6.40;;;;;;;3.36;68.47;99703.50;5074664;28;41698;-85
2021/01/15 10:16:20;;;;;;;8.70;5.60;;;;;;;3.39;68.51;99692.97;5187954;22;42905;-83
2021/01/15 10:18:47;;;;;;;9.70;6.87;;;;;;;3.41;68.83;99685.09;5095280;28;41375;-79
2021/01/15 10:21:19;;;;;;;9.17;5.80;;;;;;;3.41;67.64;99679.88;5094241;28;38812;-82
2021/01/15 10:23:47;;;;;;;6.57;5.57;;;;;;;3.54;67.62;99691.81;5077654;28;40861;-85
2021/01/15 10:26:22;;;;;;;7.40;5.60;;;;;;;3.69;66.59;99712.47;5110244;28;42556;-81
2021/01/15 10:28:49;;;;;;;8.87;5.80;;;;;;;3.76;66.72;99698.31;5165828;22;41404;-82
2021/01/15 10:31:16;;;;;;;8.37;6.10;;;;;;;3.82;66.36;99706.06;5053474;28;39095;-84
2021/01/15 10:33:43;;;;;;;7.73;5.77;;;;;;;3.84;66.05;99692.91;5070470;28;41038;-84
2021/01/15 10:36:10;;;;;;;8.00;6.13;;;;;;;4.03;65.02;99714.34;5069880;28;41984;-84
2021/01/15 10:38:41;;;;;;;6.70;5.60;;;;;;;4.08;64.86;99710.69;5147294;22;41225;31
2021/01/15 10:41:09;;;;;;;9.20;6.80;;;;;;;3.96;64.44;99685.63;5068146;28;39691;-81
2021/01/15 10:43:36;;;;;;;7.87;6.43;;;;;;;4.22;65.43;99697.28;5087534;28;40793;-81
2021/01/15 10:46:04;;;;;;;9.80;5.93;;;;;;;4.26;64.93;99693.69;5069706;28;42431;-82
2021/01/15 10:48:31;;;;;;;7.40;6.00;;;;;;;4.33;64.98;99684.78;5071180;28;42501;-81
2021/01/15 10:50:58;;;;;;;7.17;5.80;;;;;;;4.33;63.98;99679.53;5147907;22;40116;-81
2021/01/15 10:53:32;;;;;;;6.57;5.00;;;;;;;4.64;64.08;99705.88;5093923;28;41203;-81
2021/01/15 10:56:00;;;;;;;8.17;6.03;;;;;;;4.46;63.83;99666.97;5110240;28;42785;-82
2021/01/15 10:58:28;;;;;;;7.53;5.47;;;;;;;4.72;63.50;99695.19;5094218;28;41114;-83
2021/01/15 11:00:55;;;;;;;6.30;5.33;;;;;;;4.81;62.63;99708.94;5106733;28;40689;-80
2021/01/15 11:03:22;;;;;;;7.87;5.40;;;;;;;4.79;61.33;99720.38;5147715;22;41612;-83
2021/01/15 11:05:50;;;;;;;7.60;5.53;;;;;;;4.80;62.20;99706.38;5069974;28;43646;-80
2021/01/15 11:08:17;;;;;;;18.27;12.07;;;;;;;4.75;61.79;99688.09;5053055;28;41554;-80
2021/01/15 11:10:44;;;;;;;12.17;8.90;;;;;;;5.04;61.90;99724.09;5068607;28;40617;-83
2021/01/15 11:13:12;;;;;;;8.20;6.27;;;;;;;4.94;61.78;99699.88;5053323;28;41810;-81
2021/01/15 11:15:40;;;;;;;8.10;6.17;;;;;;;5.10;61.34;99721.31;5211923;22;41685;-83
2021/01/15 11:18:08;;;;;;;7.90;5.50;;;;;;;5.03;61.28;99714.50;5110367;28;42451;-82
2021/01/15 11:20:35;;;;;;;8.77;5.70;;;;;;;4.93;61.87;99692.03;5109333;27;40006;-83
2021/01/15 11:23:02;;;;;;;6.87;5.50;;;;;;;5.01;60.56;99721.56;5095095;28;42313;-82
2021/01/15 11:25:29;;;;;;;8.80;6.13;;;;;;;4.94;61.10;99720.88;5182996;22;41965;-83
2021/01/15 11:27:56;;;;;;;8.40;6.50;;;;;;;4.86;61.80;99703.56;5093900;28;41756;-81
2021/01/15 11:30:24;;;;;;;7.33;5.27;;;;;;;4.88;61.36;99709.66;5109431;28;39781;-81
2021/01/15 11:32:52;;;;;;;6.47;5.17;;;;;;;4.81;61.53;99705.47;5111086;27;41822;-82
2021/01/15 11:35:19;;;;;;;5.83;5.07;;;;;;;4.74;61.19;99696.88;5093590;28;43151;-81
2021/01/15 11:37:46;;;;;;;7.60;4.93;;;;;;;4.87;60.63;99727.16;5157969;22;41464;-83
2021/01/15 11:40:14;;;;;;;6.33;5.13;;;;;;;4.89;60.78;99719.25;5049308;28;38830;-81
2021/01/15 11:42:41;;;;;;;5.57;4.77;;;;;;;4.87;60.76;99707.91;5048949;28;42240;-80
2021/01/15 11:45:09;;;;;;;6.57;4.57;;;;;;;4.86;60.97;99698.31;5049494;28;42676;-81
2021/01/15 11:47:37;;;;;;;5.57;4.80;;;;;;;4.91;60.00;99705.19;5033046;28;42119;-80
2021/01/15 11:50:08;;;;;;;4.73;4.30;;;;;;;5.00;60.16;99704.06;5134245;22;38979;-84
2021/01/15 11:52:35;;;;;;;5.50;4.13;;;;;;;5.14;59.63;99701.94;5069463;28;42162;-82
2021/01/15 11:55:02;;;;;;;6.67;4.43;;;;;;;5.40;59.45;99711.75;5068354;28;43507;-80
2021/01/15 11:57:29;;;;;;;5.93;4.47;;;;;;;5.57;58.45;99700.72;5052334;28;41193;-82
2021/01/15 11:59:56;;;;;;;5.63;4.30;;;;;;;5.91;57.67;99719.94;5069085;28;39219;-80
2021/01/15 12:02:23;;;;;;;6.67;5.20;;;;;;;6.02;57.57;99694.16;5140196;22;41532;-80
2021/01/15 12:04:50;;;;;;;5.60;4.67;;;;;;;6.41;57.09;99705.22;5032227;28;42965;-81
2021/01/15 12:07:18;;;;;;;5.03;4.47;;;;;;;6.65;55.43;99729.88;5049531;28;43227;-79
2021/01/15 12:09:46;;;;;;;5.57;4.93;;;;;;;6.75;55.49;99712.84;5028596;28;39946;-81
2021/01/15 12:12:13;;;;;;;5.60;4.83;;;;;;;6.88;55.16;99725.63;5122525;22;42020;-81
2021/01/15 12:14:40;;;;;;;5.83;5.23;;;;;;;7.04;54.77;99734.72;5048182;28;42384;-79
2021/01/15 12:17:08;;;;;;;12.90;7.33;;;;;;;7.03;54.36;99722.47;5048816;28;43184;-83
2021/01/15 12:19:35;;;;;;;7.13;5.20;;;;;;;7.06;54.67;99724.97;5032304;28;39522;-80
2021/01/15 12:22:02;;;;;;;6.13;4.93;;;;;;;7.07;54.89;99714.38;5049885;28;41455;-82
2021/01/15 12:24:30;;;;;;;5.97;4.87;;;;;;;7.06;54.47;99738.13;5118241;22;41966;-81
2021/01/15 12:26:59;;;;;;;4.90;4.20;;;;;;;6.83;55.25;99716.09;5028398;28;41160;-81
2021/01/15 12:29:30;;;;;;;6.93;4.80;;;;;;;6.70;54.99;99713.91;5046006;28;38882;-81
2021/01/15 12:31:57;;;;;;;5.87;5.23;;;;;;;6.65;55.32;99727.25;5045668;28;40683;-81
2021/01/15 12:34:25;;;;;;;5.53;4.80;;;;;;;6.56;55.93;99722.25;5028085;28;42352;-83
2021/01/15 12:36:52;;;;;;;5.47;4.70;;;;;;;6.47;55.90;99717.28;5134966;22;41546;-81
2021/01/15 12:39:23;;;;;;;5.80;4.77;;;;;;;6.31;56.42;99695.00;5057710;28;39549;-81
2021/01/15 12:41:52;;;;;;;6.93;4.73;;;;;;;6.35;56.91;99708.03;5051414;28;41934;-81
2021/01/15 12:44:19;;;;;;;6.47;4.57;;;;;;;6.05;57.09;99666.94;5051214;28;42977;-82
2021/01/15 12:46:52;;;;;;;7.67;5.13;;;;;;;6.13;56.78;99696.47;5141097;22;42193;-81
2021/01/15 12:49:19;;;;;;;14.47;9.23;;;;;;;6.04;57.36;99687.09;5069469;28;40929;-82
2021/01/15 12:51:47;;;;;;;15.67;11.03;;;;;;;5.98;57.09;99700.41;5088080;28;41668;-82
2021/01/15 12:54:14;;;;;;;12.73;8.20;;;;;;;5.77;57.66;99683.50;5070838;28;42632;-81
2021/01/15 12:56:41;;;;;;;10.43;7.70;;;;;;;5.40;58.38;99641.69;5068330;28;42210;-82
2021/01/15 12:59:09;;;;;;;10.00;7.37;;;;;;;5.59;58.53;99667.41;5159359;22;40203;-80
2021/01/15 13:01:37;;;;;;;12.47;8.50;;;;;;;5.64;59.07;99687.41;5067872;28;41546;-82
2021/01/15 13:04:06;;;;;;;18.10;10.77;;;;;;;5.49;58.94;99681.72;5035188;28;42831;-83
2021/01/15 13:06:37;;;;;;;13.63;9.83;;;;;;;5.53;58.99;99684.22;5068655;28;43020;-82
2021/01/15 13:09:06;;;;;;;9.80;7.70;;;;;;;5.52;59.38;99690.38;5052550;28;38817;-83
2021/01/15 13:11:33;;;;;;;8.33;5.70;;;;;;;5.43;59.15;99681.91;5168898;22;41481;-81
2021/01/15 13:14:00;;;;;;;7.13;5.77;;;;;;;5.38;59.74;99680.25;5070963;28;41958;-81
2021/01/15 13:16:30;;;;;;;8.93;5.90;;;;;;;5.38;59.70;99696.03;5072133;28;41259;-81
2021/01/15 13:18:59;;;;;;;7.00;5.77;;;;;;;5.27;59.84;99698.09;5071687;28;39087;-82
2021/01/15 13:21:26;;;;;;;6.10;5.17;;;;;;;5.02;60.03;99676.03;5070948;28;40601;-81
2021/01/15 13:23:53;;;;;;;6.90;5.27;;;;;;;4.91;60.00;99685.94;5124839;22;42429;-81
2021/01/15 13:26:20;;;;;;;6.03;5.43;;;;;;;4.76;60.06;99673.22;5048910;28;42757;-81
2021/01/15 13:28:47;;;;;;;8.40;5.60;;;;;;;4.92;60.29;99700.81;5048349;28;39962;-79
2021/01/15 13:31:14;;;;;;;7.00;5.43;;;;;;;4.93;60.79;99702.53;5047953;28;40840;-80
2021/01/15 13:33:43;;;;;;;5.77;5.17;;;;;;;4.75;60.76;99674.13;5139735;22;42245;-81
2021/01/15 13:36:10;;;;;;;6.30;4.87;;;;;;;4.76;60.54;99684.59;5071264;28;41744;-81
2021/01/15 13:38:38;;;;;;;7.60;5.03;;;;;;;4.82;60.94;99694.06;5071765;28;39093;-82
2021/01/15 13:41:05;;;;;;;7.97;5.77;;;;;;;4.90;60.95;99711.34;5087689;28;42374;-80
2021/01/15 13:43:34;;;;;;;7.83;5.77;;;;;;;4.88;61.30;99715.75;5087743;28;43772;-79
2021/01/15 13:46:01;;;;;;;7.33;5.97;;;;;;;4.86;61.48;99719.31;5178593;22;42672;-81
2021/01/15 13:48:28;;;;;;;6.20;5.23;;;;;;;4.81;61.44;99708.09;5074887;28;38899;-79
2021/01/15 13:50:58;;;;;;;6.70;5.00;;;;;;;4.77;61.43;99714.31;5074427;28;40705;-81
2021/01/15 13:53:26;;;;;;;7.93;6.27;;;;;;;4.75;61.36;99718.72;5091634;28;42570;-80
2021/01/15 13:55:55;;;;;;;6.10;5.30;;;;;;;4.76;61.94;99728.31;5091288;28;42311;-81
2021/01/15 13:58:22;;;;;;;6.20;5.20;;;;;;;4.73;61.84;99721.38;5158768;22;39140;-82
2021/01/15 14:00:50;;;;;;;8.00;6.00;;;;;;;4.71;61.78;99728.44;5070928;28;41594;-80
2021/01/15 14:03:17;;;;;;;8.50;6.57;;;;;;;4.66;62.14;99731.19;5070533;28;42545;-79
2021/01/15 14:05:45;;;;;;;7.57;5.60;;;;;;;4.60;61.78;99730.47;5071197;28;42173;-80
2021/01/15 14:08:40;;;;;;;6.60;5.90;;;;;;;4.58;61.66;99740.97;5090993;22;40124;31
2021/01/15 14:11:08;;;;;;;9.33;6.37;;;;;;;4.53;61.93;99748.13;4972790;28;41208;-83
2021/01/15 14:13:36;;;;;;;7.57;6.20;;;;;;;4.41;62.09;99718.69;4975274;28;42885;-81
2021/01/15 14:16:03;;;;;;;6.87;5.83;;;;;;;4.51;62.27;99735.94;4987634;28;41970;-79
2021/01/15 14:18:31;;;;;;;8.57;7.00;;;;;;;4.49;62.00;99742.97;4956499;28;39268;-80
2021/01/15 14:20:59;;;;;;;6.70;5.57;;;;;;;4.36;62.08;99720.56;5079639;23;40966;-80
2021/01/15 14:23:26;;;;;;;10.07;6.63;;;;;;;4.33;61.98;99731.97;5054548;28;41578;-81
2021/01/15 14:25:53;;;;;;;7.00;6.03;;;;;;;4.38;62.08;99751.09;5054348;28;41527;-82
2021/01/15 14:28:21;;;;;;;7.67;6.20;;;;;;;4.32;62.37;99743.38;5054374;28;40678;-80
2021/01/15 14:30:48;;;;;;;8.43;6.07;;;;;;;4.29;62.13;99746.06;5047643;28;41583;-80
2021/01/15 14:33:15;;;;;;;8.87;6.33;;;;;;;4.18;62.27;99721.88;5185328;22;42770;-81
2021/01/15 14:35:43;;;;;;;7.50;5.97;;;;;;;4.25;62.23;99757.50;5093566;28;42671;-80
2021/01/15 14:38:10;;;;;;;9.63;7.03;;;;;;;4.21;62.38;99753.22;5077588;28;38802;-82
2021/01/15 14:40:37;;;;;;;6.43;5.67;;;;;;;4.04;62.58;99732.66;5092775;28;42350;-81
2021/01/15 14:45:46;;;;;;;8.77;6.30;;;;;;;4.02;62.79;99754.53;5049503;28;20231;-82
2021/01/15 14:48:13;;;;;;;8.27;6.73;;;;;;;3.93;62.90;99753.84;5049595;28;40728;-80
2021/01/15 14:50:41;;;;;;;16.30;10.03;;;;;;;3.84;62.96;99747.91;5032665;28;40575;-79
2021/01/15 14:53:08;;;;;;;10.43;6.87;;;;;;;3.87;63.20;99769.69;5034139;28;43014;-81
2021/01/15 14:55:35;;;;;;;9.63;7.37;;;;;;;3.80;63.16;99773.34;5130541;22;41556;-80
2021/01/15 14:58:03;;;;;;;11.10;7.67;;;;;;;3.73;63.23;99770.88;5014466;28;38784;-80
2021/01/15 15:00:30;;;;;;;9.63;6.80;;;;;;;3.61;63.57;99764.13;5013349;28;40748;-82
2021/01/15 15:02:58;;;;;;;10.70;7.13;;;;;;;3.60;64.09;99767.63;5047448;28;42683;-80
2021/01/15 15:05:25;;;;;;;10.13;7.10;;;;;;;3.51;63.89;99767.81;5049468;28;42236;-81
2021/01/15 15:07:53;;;;;;;9.73;7.23;;;;;;;3.39;64.03;99760.19;5102266;23;40112;-83
2021/01/15 15:10:21;;;;;;;9.63;7.53;;;;;;;3.45;64.34;99786.28;5009979;28;41640;-81
2021/01/15 15:12:49;;;;;;;10.47;7.60;;;;;;;3.38;64.20;99788.13;4994448;28;41753;-81
2021/01/15 15:15:17;;;;;;;11.03;7.93;;;;;;;3.34;64.43;99789.06;5010008;28;42245;-80
2021/01/15 15:17:48;;;;;;;12.03;8.03;;;;;;;3.31;64.61;99788.28;5011762;28;40131;-81
2021/01/15 15:20:17;;;;;;;11.93;7.47;;;;;;;3.30;64.83;99789.16;5144296;23;40693;-81
2021/01/15 15:22:45;;;;;;;11.07;8.33;;;;;;;3.20;65.06;99778.00;5053090;28;41796;-80
2021/01/15 15:25:13;;;;;;;11.83;8.40;;;;;;;3.21;65.17;99787.59;5069811;28;42129;-81
2021/01/15 15:27:41;;;;;;;12.33;8.90;;;;;;;2.85;65.12;99739.34;5081049;28;40708;-82
2021/01/15 15:30:09;;;;;;;9.87;7.63;;;;;;;3.06;65.25;99773.03;5158416;22;40912;-80
2021/01/15 15:32:36;;;;;;;12.77;8.53;;;;;;;2.95;65.29;99764.50;5052023;28;43672;-81
2021/01/15 15:35:04;;;;;;;13.30;8.97;;;;;;;3.02;65.60;99776.56;5052811;28;42195;-79
2021/01/15 15:37:32;;;;;;;12.13;9.37;;;;;;;2.82;65.49;99752.50;5052411;28;40053;-81
2021/01/15 15:39:59;;;;;;;11.57;8.37;;;;;;;3.08;65.95;99805.25;5051741;28;41600;-80
2021/01/15 15:42:26;;;;;;;13.00;8.83;;;;;;;2.98;65.79;99790.59;5127886;23;41840;-80
2021/01/15 15:44:53;;;;;;;13.40;9.53;;;;;;;3.05;65.79;99802.69;5068531;28;42794;-81
2021/01/15 15:47:21;;;;;;;11.77;9.20;;;;;;;2.95;66.13;99795.91;5068691;28;39644;-81
2021/01/15 15:49:48;;;;;;;12.03;9.07;;;;;;;2.97;65.99;99804.56;5069574;28;40769;-81
2021/01/15 15:52:15;;;;;;;10.97;8.00;;;;;;;2.98;65.84;99795.81;5068712;28;42862;-80
2021/01/15 15:54:43;;;;;;;9.70;7.23;;;;;;;2.92;65.96;99797.69;5150201;22;41682;-79
2021/01/15 15:57:10;;;;;;;10.00;7.67;;;;;;;2.96;66.02;99813.31;5073154;28;39335;-81
2021/01/15 15:59:37;;;;;;;12.73;8.80;;;;;;;2.96;66.22;99810.69;5072375;28;40915;-80
2021/01/15 16:02:05;;;;;;;10.97;8.93;;;;;;;2.94;66.26;99819.47;5087876;28;43971;-82
2021/01/15 16:04:32;;;;;;;13.20;9.60;;;;;;;2.91;66.25;99815.13;5089357;28;41102;-82
2021/01/15 16:06:59;;;;;;;10.53;8.20;;;;;;;2.83;66.37;99812.66;5173747;22;38707;-80
2021/01/15 16:09:26;;;;;;;15.13;10.70;;;;;;;2.84;66.65;99823.97;5073029;28;41748;-80
2021/01/15 16:11:54;;;;;;;14.07;10.50;;;;;;;2.78;66.67;99818.84;5072116;28;41738;-80
2021/01/15 16:14:21;;;;;;;12.53;10.10;;;;;;;2.77;66.81;99822.34;5087860;28;42775;-80
2021/01/15 16:16:49;;;;;;;12.10;9.60;;;;;;;2.74;66.96;99827.59;5178476;22;39837;-81
2021/01/15 16:19:16;;;;;;;13.00;10.20;;;;;;;2.72;66.89;99830.25;5075514;28;41217;-79
2021/01/15 16:21:43;;;;;;;14.13;9.90;;;;;;;2.41;66.93;99782.78;5092462;28;41741;-80
2021/01/15 16:24:11;;;;;;;12.13;9.60;;;;;;;2.67;67.19;99821.63;5092227;28;41287;-79
2021/01/15 16:26:39;;;;;;;13.40;10.93;;;;;;;2.56;67.44;99806.97;5091835;28;39837;-79
2021/01/15 16:29:08;;;;;;;18.80;12.37;;;;;;;2.53;67.51;99819.22;5153225;22;41013;-79
2021/01/15 16:31:36;;;;;;;15.00;11.57;;;;;;;2.60;67.77;99829.59;5068199;28;43052;-79
2021/01/15 16:34:03;;;;;;;14.17;11.20;;;;;;;2.58;67.86;99834.84;5051749;28;41608;-78
2021/01/15 16:36:30;;;;;;;15.73;11.53;;;;;;;2.57;67.76;99837.47;5068523;28;40891;-79
2021/01/15 16:38:58;;;;;;;15.80;12.10;;;;;;;2.50;68.04;99834.06;5068399;28;41167;-80
2021/01/15 16:41:28;;;;;;;16.43;11.23;;;;;;;2.48;68.17;99828.84;5149958;22;42827;-79
2021/01/15 16:43:56;;;;;;;17.27;12.43;;;;;;;2.41;68.46;99824.63;5088400;28;44225;-79
2021/01/15 16:46:24;;;;;;;16.83;12.53;;;;;;;2.42;68.15;99839.41;5088073;28;40884;-79
2021/01/15 16:48:51;;;;;;;16.50;11.47;;;;;;;2.37;68.23;99833.38;5072152;28;40988;-79
2021/01/15 16:51:46;;;;;;;12.50;10.10;;;;;;;2.49;68.35;99858.47;5109733;22;42759;31
2021/01/15 16:54:14;;;;;;;16.27;11.67;;;;;;;2.36;68.65;99842.09;5012848;28;41086;-79
2021/01/15 16:56:49;;;;;;;14.47;10.47;;;;;;;2.38;68.56;99845.56;5030644;28;40096;-79
2021/01/15 16:59:16;;;;;;;19.27;12.70;;;;;;;2.44;68.57;99865.53;5015396;28;41976;-81
2021/01/15 17:01:49;;;;;;;16.37;11.70;;;;;;;2.30;68.71;99836.09;5040645;28;41923;-80
2021/01/15 17:04:16;;;;;;;14.37;10.40;;;;;;;2.41;68.65;99863.81;5128351;22;41892;-79
2021/01/15 17:06:50;;;;;;;16.00;11.57;;;;;;;2.31;68.40;99849.16;5071247;28;40707;-80
2021/01/15 17:09:18;;;;;;;14.60;10.70;;;;;;;2.43;68.71;99869.91;5088977;28;41812;-81
2021/01/15 17:11:46;;;;;;;16.50;11.43;;;;;;;2.32;68.79;99861.34;5088643;28;43547;-80
2021/01/15 17:14:13;;;;;;;13.87;10.23;;;;;;;2.37;68.66;99874.31;5054631;28;41929;-81
2021/01/15 17:16:41;;;;;;;15.67;10.83;;;;;;;2.31;68.83;99854.38;5140252;22;39425;-81
2021/01/15 17:28:08;;;;;;;13.93;9.80;;;;;;;1.86;69.04;99797.47;5196400;22;42880;-81
2021/01/15 17:31:13;;;;;;;15.67;11.63;;;;;;;1.99;68.99;99819.94;5042143;28;41897;-81
